Time;durP1;ratioP1;P1;durP2;ratioP2;P2;SDS_P1;SDS_P2;PMS_P1;PMS_P2;Temp;Humidity;BMP_temperature;BMP_pressure;BME280_temperature;BME280_humidity;BME280_pressure;Samples;Min_cycle;Max_cycle;Signal;HPM_P1;HPM_P2
2021/03/06 00:02:15;;;;;;;12.30;7.18;;;;;;;-1.79;78.72;100220.03;4869634;28;20027;-63
2021/03/06 00:04:40;;;;;;;12.02;7.68;;;;;;;-1.85;78.65;100218.91;4873352;28;20029;-63
2021/03/06 00:07:06;;;;;;;14.85;7.65;;;;;;;-1.92;79.15;100215.97;4882324;28;20575;-63
2021/03/06 00:09:31;;;;;;;10.77;6.95;;;;;;;-1.92;79.25;100216.84;4896557;28;20096;-62
2021/03/06 00:11:56;;;;;;;10.57;7.38;;;;;;;-1.93;79.31;100219.31;4902131;28;20053;-63
2021/03/06 00:14:22;;;;;;;16.98;8.30;;;;;;;-1.99;79.83;100219.81;4909381;28;20026;-63
2021/03/06 00:16:47;;;;;;;10.57;6.97;;;;;;;-1.99;79.96;100224.88;4922310;28;20030;-62
2021/03/06 00:19:13;;;;;;;17.02;8.50;;;;;;;-2.02;81.60;100214.59;4921216;28;20022;-62
2021/03/06 00:21:38;;;;;;;15.90;9.05;;;;;;;-2.05;80.38;100223.69;4953605;28;20038;-62
2021/03/06 00:24:05;;;;;;;17.10;8.73;;;;;;;-2.10;80.55;100220.88;4952595;28;20031;-62
2021/03/06 00:26:30;;;;;;;13.50;8.27;;;;;;;-2.15;80.67;100224.84;4951833;28;20019;-62
2021/03/06 00:28:56;;;;;;;15.23;8.52;;;;;;;-2.15;80.91;100222.31;4963167;28;20472;-63
2021/03/06 00:31:21;;;;;;;17.02;7.82;;;;;;;-2.10;81.34;100215.81;4973881;28;20019;-62
2021/03/06 00:33:47;;;;;;;14.52;8.25;;;;;;;-2.04;81.37;100221.22;4974620;28;20041;-62
2021/03/06 00:36:12;;;;;;;11.43;7.80;;;;;;;-2.03;81.14;100215.38;4974385;28;20023;-62
2021/03/06 00:38:37;;;;;;;12.35;7.05;;;;;;;-2.14;80.09;100208.81;4974343;28;20447;-62
2021/03/06 00:41:03;;;;;;;12.10;7.70;;;;;;;-2.08;80.50;100210.03;4973717;28;20023;-62
2021/03/06 00:43:28;;;;;;;12.68;7.45;;;;;;;-1.85;82.02;100213.81;4974172;28;20081;-62
2021/03/06 00:45:53;;;;;;;9.40;6.47;;;;;;;-1.87;80.43;100220.50;4973881;28;20029;-62
2021/03/06 00:48:19;;;;;;;12.45;6.85;;;;;;;-1.79;81.63;100222.56;4974041;28;20031;-63
2021/03/06 00:50:44;;;;;;;12.40;6.18;;;;;;;-2.00;80.07;100220.59;4973806;28;20026;-63
2021/03/06 00:53:09;;;;;;;11.93;6.68;;;;;;;-2.12;80.31;100227.56;4974064;28;20085;-62
2021/03/06 00:55:35;;;;;;;12.18;6.00;;;;;;;-1.94;82.01;100223.47;4974006;28;20113;-62
2021/03/06 00:58:00;;;;;;;11.15;6.97;;;;;;;-1.86;80.82;100226.44;4973982;28;20108;-62
2021/03/06 08:01:36;;;;;;;8.52;5.70;;;;;;;-0.44;67.30;100250.78;5400701;23;20435;-70
2021/03/06 08:04:04;;;;;;;8.88;5.30;;;;;;;-0.34;66.28;100248.78;4955644;28;20248;-70
2021/03/06 08:06:31;;;;;;;7.25;5.43;;;;;;;-0.27;65.73;100248.28;4955619;28;20035;-70
2021/03/06 08:09:04;;;;;;;12.25;5.53;;;;;;;-0.02;65.91;100242.69;4955611;28;20464;-70
2021/03/06 08:11:32;;;;;;;8.55;5.50;;;;;;;0.12;64.48;100245.88;4955446;28;20027;-70
2021/03/06 08:13:59;;;;;;;12.43;6.05;;;;;;;0.31;64.74;100246.75;4955922;29;20022;-66
2021/03/06 08:16:27;;;;;;;10.23;6.45;;;;;;;0.63;63.01;100251.66;4947117;28;20107;-66
2021/03/06 08:19:09;;;;;;;13.32;6.28;;;;;;;1.24;60.82;100244.13;4954159;29;20031;-66
2021/03/06 08:21:38;;;;;;;6.95;5.10;;;;;;;2.72;55.11;100246.66;4955227;29;20384;-66
2021/03/06 08:24:19;;;;;;;8.27;4.65;;;;;;;5.98;48.39;100224.94;4955239;29;20451;-67
2021/03/06 08:27:02;;;;;;;7.95;4.28;;;;;;;6.30;44.55;100229.16;4955437;28;20042;-67
2021/03/06 08:29:28;;;;;;;6.07;4.22;;;;;;;6.97;41.78;100226.28;4955155;28;20118;-67
2021/03/06 08:32:05;;;;;;;5.93;4.07;;;;;;;9.47;37.01;100219.66;4954875;28;20058;-72
2021/03/06 08:34:47;;;;;;;7.32;3.70;;;;;;;11.10;34.65;100212.97;4955277;28;20027;-72
2021/03/06 08:37:13;;;;;;;5.55;4.10;;;;;;;11.75;33.43;100213.09;4955212;28;20106;-72
2021/03/06 08:39:51;;;;;;;5.38;3.50;;;;;;;11.52;32.86;100215.66;4955015;28;20082;-72
2021/03/06 08:42:29;;;;;;;7.28;3.35;;;;;;;12.82;30.24;100217.28;4955007;28;20042;-72
2021/03/06 08:44:57;;;;;;;4.35;3.33;;;;;;;12.36;29.95;100222.59;4947476;29;20035;-72
2021/03/06 08:47:25;;;;;;;4.15;3.10;;;;;;;13.31;30.79;100211.84;4942319;29;20048;-72
2021/03/06 08:49:55;;;;;;;3.70;3.10;;;;;;;14.91;27.05;100212.13;4935786;29;20036;-70
2021/03/06 08:52:23;;;;;;;4.53;2.97;;;;;;;12.22;29.49;100234.72;4935438;29;20579;-71
2021/03/06 08:54:49;;;;;;;7.43;3.35;;;;;;;10.65;31.99;100237.84;4935649;29;20031;-71
2021/03/06 08:57:34;;;;;;;5.88;3.17;;;;;;;11.13;30.84;100238.94;4935655;29;20031;-71
2021/03/06 09:00:23;;;;;;;3.15;2.88;;;;;;;12.15;30.47;100233.03;4935499;29;20031;-71
2021/03/06 09:02:50;;;;;;;4.20;3.40;;;;;;;10.39;30.78;100243.72;4924428;29;20474;-71
2021/03/06 09:05:19;;;;;;;4.72;3.67;;;;;;;11.64;30.44;100232.09;4935616;29;20035;-71
2021/03/06 09:07:47;;;;;;;3.53;2.90;;;;;;;12.27;28.99;100238.19;4935543;29;20519;-73
2021/03/06 09:10:15;;;;;;;4.05;2.90;;;;;;;10.36;31.54;100256.69;4935294;29;20103;-71
2021/03/06 09:12:41;;;;;;;4.68;3.20;;;;;;;12.35;29.72;100237.31;4935333;29;20374;-72
2021/03/06 09:15:09;;;;;;;4.97;2.90;;;;;;;10.98;31.06;100243.19;4938933;29;20024;-73
2021/03/06 09:17:35;;;;;;;4.35;3.10;;;;;;;11.01;30.00;100242.31;4941992;29;20027;-71
2021/03/06 09:20:03;;;;;;;4.20;3.22;;;;;;;12.16;29.87;100230.41;4935242;29;20473;-72
2021/03/06 09:22:39;;;;;;;5.53;3.60;;;;;;;12.62;28.84;100230.34;4934983;29;20059;-72
2021/03/06 09:25:05;;;;;;;5.15;3.22;;;;;;;13.30;27.80;100228.34;4933942;29;20511;-72
2021/03/06 09:27:42;;;;;;;4.80;3.50;;;;;;;12.50;28.88;100236.41;4935122;28;20063;-72
2021/03/06 09:30:21;;;;;;;6.97;3.63;;;;;;;10.32;29.99;100239.38;4934521;29;20061;-71
2021/03/06 09:32:47;;;;;;;4.05;3.35;;;;;;;11.98;29.13;100231.28;4935152;29;20366;-72
2021/03/06 09:35:14;;;;;;;4.10;3.47;;;;;;;14.93;26.15;100225.16;4934998;29;20495;-71
2021/03/06 09:37:40;;;;;;;3.80;3.25;;;;;;;10.85;29.27;100246.59;4935068;29;20596;-71
2021/03/06 09:40:20;;;;;;;4.22;3.70;;;;;;;11.90;28.69;100232.19;4934908;29;20052;-71
2021/03/06 09:42:49;;;;;;;6.00;3.35;;;;;;;13.01;26.54;100221.53;4934932;29;20023;-72
2021/03/06 09:45:15;;;;;;;7.18;5.70;;;;;;;11.96;28.59;100238.22;4939841;29;20079;-72
2021/03/06 09:47:41;;;;;;;4.68;3.65;;;;;;;11.06;29.10;100236.28;4940687;29;20035;-72
2021/03/06 09:50:07;;;;;;;3.28;2.85;;;;;;;10.68;30.13;100237.84;4934812;29;20032;-72
2021/03/06 09:52:33;;;;;;;6.00;3.50;;;;;;;11.45;29.38;100226.88;4934523;29;20530;-71
2021/03/06 09:54:59;;;;;;;9.45;4.03;;;;;;;10.35;30.07;100239.41;4934833;29;20111;-73
2021/03/06 09:57:25;;;;;;;3.78;3.38;;;;;;;13.08;27.60;100215.41;4934695;29;20110;-72
2021/03/06 09:59:50;;;;;;;3.55;2.75;;;;;;;10.51;29.71;100232.59;4933394;29;20051;-71
2021/03/06 10:02:17;;;;;;;6.43;3.58;;;;;;;11.34;28.69;100228.59;4934275;29;20051;-71
2021/03/06 10:04:46;;;;;;;5.72;4.00;;;;;;;11.96;28.53;100227.84;4934805;29;20034;-71
2021/03/06 10:07:13;;;;;;;5.32;3.20;;;;;;;12.14;27.96;100215.72;4935069;29;20031;-71
2021/03/06 10:09:38;;;;;;;4.78;3.63;;;;;;;11.85;28.45;100221.78;4945644;29;20406;-71
2021/03/06 10:12:16;;;;;;;7.30;3.08;;;;;;;12.80;26.81;100213.78;4944154;28;20051;-71
2021/03/06 10:14:46;;;;;;;3.72;2.92;;;;;;;11.29;26.98;100212.16;4944508;29;20476;-77
2021/03/06 10:17:13;;;;;;;4.15;2.92;;;;;;;11.77;27.61;100215.69;4951730;28;20082;-69
2021/03/06 10:19:49;;;;;;;2.88;2.55;;;;;;;10.77;28.95;100217.16;4936226;29;20066;-69
2021/03/06 10:22:15;;;;;;;6.97;4.18;;;;;;;13.83;26.57;100207.13;4938134;29;20019;-68
2021/03/06 10:25:02;;;;;;;6.43;3.20;;;;;;;11.73;28.12;100219.13;4953597;28;20326;-69
2021/03/06 10:27:37;;;;;;;3.00;2.70;;;;;;;13.21;26.40;100211.00;4950894;29;20381;-69
2021/03/06 10:30:26;;;;;;;3.55;2.88;;;;;;;13.21;25.78;100204.94;4937387;29;20366;-69
2021/03/06 10:32:57;;;;;;;5.10;3.33;;;;;;;13.85;25.76;100204.50;4953190;28;20055;-70
2021/03/06 10:35:37;;;;;;;4.60;3.08;;;;;;;12.61;26.33;100208.66;4940460;28;20393;-69
2021/03/06 10:38:08;;;;;;;4.97;2.97;;;;;;;15.13;23.87;100197.94;4950047;29;20031;-69
2021/03/06 10:40:50;;;;;;;3.90;3.20;;;;;;;13.11;25.08;100210.19;4942155;29;20523;-69
2021/03/06 10:43:27;;;;;;;5.15;3.17;;;;;;;12.89;26.08;100216.34;4944780;28;20389;-69
2021/03/06 10:45:53;;;;;;;4.90;2.70;;;;;;;12.54;25.77;100206.09;4946305;29;20103;-69
2021/03/06 10:48:29;;;;;;;5.07;3.13;;;;;;;13.56;24.77;100203.00;4943037;29;20027;-69
2021/03/06 10:50:56;;;;;;;3.40;3.08;;;;;;;13.67;24.54;100210.72;4947040;29;20035;-69
2021/03/06 10:53:22;;;;;;;4.45;2.42;;;;;;;11.48;26.24;100211.31;4950762;29;20034;-69
2021/03/06 10:55:50;;;;;;;3.83;2.47;;;;;;;12.00;27.21;100203.59;4941217;29;20035;-69
2021/03/06 10:58:16;;;;;;;6.15;3.90;;;;;;;13.61;24.99;100205.56;4952704;29;20031;-69
2021/03/06 11:00:43;;;;;;;3.45;2.88;;;;;;;13.58;24.03;100211.66;4946464;29;20182;-70
2021/03/06 11:03:11;;;;;;;3.58;2.83;;;;;;;12.48;25.33;100201.78;4947622;29;20484;-69
2021/03/06 11:05:37;;;;;;;3.17;2.88;;;;;;;12.86;24.38;100203.34;4941679;28;20035;-70
2021/03/06 11:08:20;;;;;;;10.07;2.90;;;;;;;12.28;26.24;100203.53;4955573;29;20054;-69
2021/03/06 11:10:48;;;;;;;3.17;2.67;;;;;;;14.31;23.48;100191.91;4947914;29;20027;-69
2021/03/06 11:13:14;;;;;;;4.00;2.72;;;;;;;13.27;24.54;100190.16;4946729;29;20059;-69
2021/03/06 11:15:53;;;;;;;4.45;2.90;;;;;;;12.88;24.65;100191.22;4948973;29;20058;-69
2021/03/06 11:18:20;;;;;;;4.00;2.97;;;;;;;12.41;26.46;100186.19;4950985;29;20020;-69
2021/03/06 11:20:46;;;;;;;6.40;3.42;;;;;;;13.78;25.76;100181.97;4944695;29;20038;-70
2021/03/06 11:23:11;;;;;;;7.78;3.60;;;;;;;14.07;25.05;100180.00;4944724;29;20046;-69
2021/03/06 11:25:37;;;;;;;3.00;2.35;;;;;;;12.75;24.24;100184.34;4951783;29;20114;-69
2021/03/06 11:28:08;;;;;;;3.45;2.78;;;;;;;13.89;24.84;100173.19;4940319;29;20031;-70
2021/03/06 11:30:44;;;;;;;3.83;2.80;;;;;;;12.99;25.98;100172.94;4949343;29;20031;-69
2021/03/06 11:33:12;;;;;;;7.57;3.17;;;;;;;13.18;24.56;100173.72;4948529;29;20023;-69
2021/03/06 11:35:38;;;;;;;3.35;2.63;;;;;;;12.06;24.17;100181.94;4941230;29;20031;-69
2021/03/06 11:38:06;;;;;;;2.92;2.22;;;;;;;12.15;24.51;100175.88;4952599;29;20052;-69
2021/03/06 11:40:33;;;;;;;3.75;2.50;;;;;;;14.34;22.95;100162.31;4942817;29;20365;-68
2021/03/06 11:42:59;;;;;;;2.75;2.10;;;;;;;13.35;23.50;100171.91;4945877;29;20058;-67
2021/03/06 11:45:25;;;;;;;3.03;2.35;;;;;;;13.48;24.17;100172.66;4945500;29;20059;-67
2021/03/06 11:47:52;;;;;;;3.70;2.35;;;;;;;13.20;24.14;100159.84;4939630;29;20050;-67
2021/03/06 11:50:20;;;;;;;3.92;2.65;;;;;;;13.93;23.68;100155.81;4951288;29;20052;-67
2021/03/06 11:52:46;;;;;;;3.22;2.28;;;;;;;12.21;25.02;100147.25;4943732;29;20027;-67
2021/03/06 11:55:12;;;;;;;2.58;2.08;;;;;;;13.30;24.19;100145.03;4953903;28;20057;-67
2021/03/06 11:57:38;;;;;;;2.95;1.80;;;;;;;11.74;24.75;100140.38;4953248;28;20055;-67
2021/03/06 12:00:06;;;;;;;2.67;1.88;;;;;;;13.77;23.34;100135.97;4939601;29;21041;-69
2021/03/06 12:02:32;;;;;;;2.72;2.30;;;;;;;12.41;24.42;100140.25;4953869;29;20170;-75
2021/03/06 12:04:57;;;;;;;3.40;2.17;;;;;;;14.56;21.87;100123.88;4945745;29;20119;-76
2021/03/06 12:07:23;;;;;;;2.38;2.15;;;;;;;16.38;20.71;100115.69;4949561;29;20062;-76
2021/03/06 12:09:48;;;;;;;3.03;2.15;;;;;;;16.89;20.02;100118.13;4946663;28;20038;-76
2021/03/06 12:12:14;;;;;;;5.47;1.80;;;;;;;15.96;20.50;100122.63;4940522;28;20061;-76
2021/03/06 12:14:39;;;;;;;3.25;2.08;;;;;;;13.26;22.67;100125.13;4941665;29;20020;-75
2021/03/06 12:17:05;;;;;;;3.00;2.28;;;;;;;11.92;23.87;100122.19;4950101;29;20104;-75
2021/03/06 12:19:30;;;;;;;2.38;1.90;;;;;;;13.03;22.86;100118.28;4941029;29;20114;-75
2021/03/06 12:21:56;;;;;;;3.92;2.13;;;;;;;14.22;22.61;100099.91;4951469;29;20027;-75
2021/03/06 12:24:21;;;;;;;5.70;2.38;;;;;;;14.75;22.57;100103.63;4941015;29;20038;-75
2021/03/06 12:26:51;;;;;;;4.65;2.00;;;;;;;11.79;24.70;100110.06;4946674;29;20031;-75
2021/03/06 12:29:18;;;;;;;3.03;2.40;;;;;;;10.91;26.23;100116.94;4948086;29;20489;-75
2021/03/06 12:31:43;;;;;;;3.90;2.20;;;;;;;9.95;27.63;100119.09;4939038;28;20054;-75
2021/03/06 12:34:08;;;;;;;2.40;2.08;;;;;;;8.24;29.11;100123.47;4951658;29;20023;-75
2021/03/06 12:36:34;;;;;;;2.20;2.00;;;;;;;8.20;30.66;100109.66;4942346;29;20022;-74
2021/03/06 12:39:00;;;;;;;4.63;2.30;;;;;;;8.44;29.62;100110.84;4944905;28;20065;-75
2021/03/06 12:41:25;;;;;;;2.70;2.40;;;;;;;8.05;29.99;100111.16;4948509;29;20105;-75
2021/03/06 12:43:50;;;;;;;3.08;2.60;;;;;;;8.16;30.14;100104.41;4938906;29;20067;-75
2021/03/06 12:46:16;;;;;;;4.88;2.75;;;;;;;8.31;31.79;100104.63;4945689;29;20031;-74
2021/03/06 12:48:42;;;;;;;6.35;3.78;;;;;;;8.36;31.17;100096.94;4943177;29;20504;-74
2021/03/06 12:51:07;;;;;;;3.92;2.50;;;;;;;8.60;31.99;100092.06;4943611;29;20031;-73
2021/03/06 12:53:32;;;;;;;3.08;2.33;;;;;;;9.12;31.62;100092.59;4949847;29;20069;-76
2021/03/06 12:55:58;;;;;;;4.90;3.25;;;;;;;8.42;30.58;100091.88;4938701;28;20035;-78
2021/03/06 12:58:23;;;;;;;2.05;1.90;;;;;;;8.07;30.47;100086.22;4949403;29;20473;-78
2021/03/06 13:00:48;;;;;;;4.03;2.53;;;;;;;7.63;31.25;100089.06;4942182;29;20026;-78
2021/03/06 13:03:14;;;;;;;3.58;2.67;;;;;;;8.06;32.10;100077.63;4949136;28;20023;-77
2021/03/06 13:05:39;;;;;;;6.88;3.83;;;;;;;8.06;30.56;100081.91;4939380;28;20046;-71
2021/03/06 13:08:05;;;;;;;8.77;2.50;;;;;;;8.10;29.61;100075.97;4953702;29;20492;-76
2021/03/06 13:10:30;;;;;;;4.07;2.78;;;;;;;8.20;31.41;100070.06;4948163;29;20034;-77
2021/03/06 13:12:55;;;;;;;2.65;2.28;;;;;;;8.44;31.82;100072.97;4944399;29;20393;-71
2021/03/06 13:15:21;;;;;;;4.53;2.40;;;;;;;8.18;31.26;100067.47;4949335;28;20062;-71
2021/03/06 13:17:47;;;;;;;3.70;2.38;;;;;;;7.30;31.95;100077.41;4937676;29;20031;-76
2021/03/06 13:20:13;;;;;;;3.80;2.40;;;;;;;7.58;32.48;100068.34;4950248;28;20094;-76
2021/03/06 13:22:39;;;;;;;2.40;2.20;;;;;;;7.71;31.33;100054.78;4941545;29;20111;-75
2021/03/06 13:25:06;;;;;;;4.43;2.47;;;;;;;8.43;31.11;100053.16;4939907;29;20106;-75
2021/03/06 13:27:31;;;;;;;4.30;2.40;;;;;;;8.48;30.81;100051.50;4940209;28;20425;-71
2021/03/06 13:29:57;;;;;;;4.75;2.38;;;;;;;8.65;30.24;100055.97;4950643;29;20027;-75
2021/03/06 13:32:22;;;;;;;3.88;2.70;;;;;;;8.30;31.08;100056.41;4939665;29;20034;-71
2021/03/06 13:34:48;;;;;;;4.55;2.22;;;;;;;7.93;29.77;100066.28;4945598;28;20111;-75
2021/03/06 13:37:14;;;;;;;3.42;2.33;;;;;;;7.63;31.45;100050.38;4946816;29;20110;-74
2021/03/06 13:39:40;;;;;;;2.70;2.45;;;;;;;7.75;30.96;100050.56;4938618;28;20038;-74
2021/03/06 13:42:05;;;;;;;3.08;2.70;;;;;;;7.98;31.28;100046.56;4950251;29;20027;-75
2021/03/06 13:44:31;;;;;;;2.33;2.13;;;;;;;8.05;30.25;100049.22;4939527;29;20038;-75
2021/03/06 13:46:56;;;;;;;2.70;2.03;;;;;;;7.93;31.23;100053.38;4940714;28;20023;-75
2021/03/06 13:49:21;;;;;;;3.45;2.65;;;;;;;7.32;32.76;100049.91;4944668;29;20515;-76
2021/03/06 13:51:47;;;;;;;4.82;2.95;;;;;;;7.70;32.50;100049.63;4944458;29;20110;-76
2021/03/06 13:54:13;;;;;;;7.10;2.42;;;;;;;7.75;31.13;100050.56;4938400;29;20116;-75
2021/03/06 13:56:38;;;;;;;5.03;2.20;;;;;;;7.76;30.78;100036.81;4942049;28;20027;-74
2021/03/06 13:59:03;;;;;;;2.50;2.30;;;;;;;7.78;31.09;100042.84;4939959;28;20059;-73
2021/03/06 14:01:29;;;;;;;3.53;2.58;;;;;;;7.34;31.89;100037.91;4940673;28;20129;-72
2021/03/06 14:03:55;;;;;;;17.70;3.17;;;;;;;7.73;32.00;100031.59;4943031;28;20027;-72
2021/03/06 14:06:21;;;;;;;2.40;2.20;;;;;;;7.48;31.68;100036.41;4941251;29;20123;-72
2021/03/06 14:08:47;;;;;;;3.30;2.67;;;;;;;7.47;32.13;100032.09;4940944;29;20492;-72
2021/03/06 14:11:14;;;;;;;4.18;3.08;;;;;;;7.03;32.46;100030.53;4941155;28;20030;-70
2021/03/06 14:13:39;;;;;;;5.80;2.95;;;;;;;7.78;32.14;100023.91;4940876;29;20059;-70
2021/03/06 14:16:05;;;;;;;2.80;2.20;;;;;;;7.75;31.26;100019.59;4959452;23;20159;-69
2021/03/06 14:18:30;;;;;;;7.40;2.33;;;;;;;7.75;30.85;100019.59;4937306;28;20070;-67
2021/03/06 14:20:56;;;;;;;39.65;4.70;;;;;;;8.13;30.25;100017.50;4936962;28;20095;-71
2021/03/06 14:23:22;;;;;;;14.52;3.20;;;;;;;8.06;30.32;100014.81;4936126;29;20066;-72
2021/03/06 14:25:47;;;;;;;15.50;3.05;;;;;;;8.22;30.38;100016.75;4927059;28;20201;-73
2021/03/06 14:28:12;;;;;;;2.75;2.25;;;;;;;8.05;29.71;100013.09;4923231;29;20039;-73
2021/03/06 14:30:38;;;;;;;2.85;2.10;;;;;;;7.83;29.57;100018.00;4909569;29;20027;-73
2021/03/06 14:33:03;;;;;;;3.70;2.15;;;;;;;8.11;29.00;100008.84;4904170;29;20545;-72
2021/03/06 14:35:28;;;;;;;4.93;2.13;;;;;;;7.88;30.58;100011.19;4895971;29;20543;-73
2021/03/06 14:37:54;;;;;;;6.35;3.50;;;;;;;8.07;30.64;100006.22;4887182;29;20366;-68
2021/03/06 14:40:19;;;;;;;6.55;2.50;;;;;;;8.06;30.33;99996.75;4881992;29;20039;-66
2021/03/06 14:42:44;;;;;;;2.78;2.20;;;;;;;7.87;29.87;100004.25;4873007;29;20031;-66
2021/03/06 14:45:10;;;;;;;5.93;2.30;;;;;;;7.93;30.16;99991.44;4869547;29;20101;-66
2021/03/06 14:47:36;;;;;;;3.47;2.30;;;;;;;7.83;30.83;99992.19;4856849;29;20497;-66
2021/03/06 14:50:03;;;;;;;3.40;2.25;;;;;;;8.06;30.49;99994.16;4854514;29;20036;-67
2021/03/06 14:52:29;;;;;;;3.80;2.47;;;;;;;7.90;28.94;99993.13;4857269;29;20493;-67
2021/03/06 14:54:54;;;;;;;2.28;1.98;;;;;;;7.36;30.73;99974.34;4841036;29;20034;-71
2021/03/06 14:57:19;;;;;;;2.30;1.92;;;;;;;7.86;30.13;99984.47;4843842;29;20032;-73
2021/03/06 14:59:45;;;;;;;9.52;5.85;;;;;;;7.88;30.33;99980.22;4844079;29;20038;-75
2021/03/06 15:02:10;;;;;;;3.03;2.72;;;;;;;7.88;30.04;99976.72;4855950;29;20028;-69
2021/03/06 15:04:36;;;;;;;5.93;2.33;;;;;;;8.10;30.45;99970.13;4862118;29;20055;-74
2021/03/06 15:07:03;;;;;;;4.10;3.13;;;;;;;7.57;29.94;99967.75;4804211;29;20048;-71
2021/03/06 15:09:28;;;;;;;2.63;2.00;;;;;;;7.66;30.18;99962.72;4816868;29;20033;-68
2021/03/06 15:11:54;;;;;;;2.53;1.60;;;;;;;7.48;30.15;99959.03;4862799;29;20040;-70
2021/03/06 15:14:19;;;;;;;2.90;2.13;;;;;;;7.51;29.82;99959.94;4853763;29;20028;-69
2021/03/06 15:16:44;;;;;;;18.92;2.83;;;;;;;7.44;30.58;99956.41;4848316;29;20135;-68
2021/03/06 15:19:10;;;;;;;6.97;2.20;;;;;;;7.44;29.86;99965.00;4867260;29;20036;-69
2021/03/06 15:21:35;;;;;;;3.20;2.90;;;;;;;7.33;30.30;99953.69;4845865;29;20051;-65
2021/03/06 15:24:01;;;;;;;3.35;2.40;;;;;;;7.21;30.56;99953.53;4874331;29;20765;-65
2021/03/06 15:26:27;;;;;;;3.08;2.17;;;;;;;7.07;30.64;99955.03;4867140;29;20044;-69
2021/03/06 15:28:53;;;;;;;3.05;1.90;;;;;;;7.02;30.19;99951.50;4878136;29;20124;-65
2021/03/06 15:31:18;;;;;;;2.75;2.22;;;;;;;6.98;30.45;99942.88;4859608;29;20041;-69
2021/03/06 15:33:43;;;;;;;9.70;2.25;;;;;;;7.09;30.26;99932.72;4879341;29;20400;-68
2021/03/06 15:36:09;;;;;;;3.50;2.25;;;;;;;7.04;30.11;99934.34;4877000;29;20051;-70
2021/03/06 15:38:34;;;;;;;3.50;1.92;;;;;;;7.06;29.95;99930.06;4882730;29;20028;-66
2021/03/06 15:41:00;;;;;;;9.45;2.38;;;;;;;6.96;30.62;99921.34;4858645;29;20044;-69
2021/03/06 15:43:25;;;;;;;4.50;2.03;;;;;;;6.89;30.35;99920.41;4880676;29;20406;-69
2021/03/06 15:45:50;;;;;;;2.45;2.20;;;;;;;6.83;30.69;99907.44;4865390;29;20422;-68
2021/03/06 15:48:16;;;;;;;3.97;2.30;;;;;;;6.82;31.05;99913.44;4881980;29;20111;-66
2021/03/06 15:50:41;;;;;;;2.67;2.28;;;;;;;6.90;31.69;99911.81;4869345;29;20041;-69
2021/03/06 15:53:07;;;;;;;2.22;2.03;;;;;;;6.73;30.61;99908.13;4884994;29;20067;-66
2021/03/06 15:55:32;;;;;;;4.10;2.20;;;;;;;6.76;31.17;99908.16;4858385;29;20518;-69
2021/03/06 15:57:57;;;;;;;2.35;1.90;;;;;;;6.86;31.35;99909.16;4880002;29;20037;-66
2021/03/06 16:00:23;;;;;;;4.15;2.22;;;;;;;6.89;31.26;99904.94;4856569;29;20510;-70
2021/03/06 16:02:48;;;;;;;4.88;2.10;;;;;;;6.86;30.91;99910.03;4879852;29;20096;-66
2021/03/06 16:05:14;;;;;;;3.33;2.42;;;;;;;6.79;30.78;99897.91;4844319;29;20091;-65
2021/03/06 16:07:40;;;;;;;3.65;2.38;;;;;;;6.76;31.28;99900.44;4869471;29;20033;-65
2021/03/06 16:10:06;;;;;;;11.40;2.75;;;;;;;6.70;31.51;99908.06;4832002;29;20445;-65
2021/03/06 16:12:31;;;;;;;6.65;3.83;;;;;;;6.68;32.14;99904.63;4843034;29;20077;-65
2021/03/06 16:14:57;;;;;;;6.30;4.28;;;;;;;6.68;31.65;99909.78;4820984;29;20151;-65
2021/03/06 16:17:22;;;;;;;4.28;3.33;;;;;;;6.45;31.34;99901.66;4841017;29;20041;-65
2021/03/06 16:19:48;;;;;;;7.88;2.70;;;;;;;6.55;31.42;99902.69;4806323;29;20091;-65
2021/03/06 16:22:13;;;;;;;2.53;2.33;;;;;;;6.47;31.72;99909.41;4821983;29;20040;-70
2021/03/06 16:24:38;;;;;;;4.30;3.92;;;;;;;6.34;31.22;99919.50;4785635;29;28717;-72
2021/03/06 16:27:05;;;;;;;3.03;2.40;;;;;;;6.34;31.71;99914.38;4794395;29;20080;-72
2021/03/06 16:29:30;;;;;;;6.30;3.88;;;;;;;6.29;31.76;99910.84;4742878;29;20068;-65
2021/03/06 16:31:56;;;;;;;5.90;3.92;;;;;;;6.27;32.03;99917.66;4786535;29;20126;-71
2021/03/06 16:34:21;;;;;;;4.00;2.70;;;;;;;6.25;32.63;99915.91;4760740;29;20032;-70
2021/03/06 16:36:47;;;;;;;6.57;3.20;;;;;;;6.19;32.52;99908.94;4751102;29;20545;-70
2021/03/06 16:39:13;;;;;;;3.97;2.38;;;;;;;6.14;32.14;99907.97;4783105;29;20111;-69
2021/03/06 16:41:39;;;;;;;9.60;2.97;;;;;;;6.10;32.30;99913.94;4787655;29;20052;-68
2021/03/06 16:44:06;;;;;;;3.67;2.47;;;;;;;5.97;32.08;99914.53;4787850;29;20028;-69
2021/03/06 16:46:33;;;;;;;2.58;2.13;;;;;;;5.91;32.32;99923.88;4762672;29;20040;-69
2021/03/06 16:48:58;;;;;;;4.05;2.42;;;;;;;5.90;32.02;99923.81;4802367;29;20033;-68
2021/03/06 16:51:24;;;;;;;6.90;2.80;;;;;;;5.83;32.05;99921.94;4797984;29;20039;-66
2021/03/06 16:53:49;;;;;;;5.10;3.55;;;;;;;5.71;32.31;99919.16;4804060;29;20116;-71
2021/03/06 16:56:15;;;;;;;6.82;3.47;;;;;;;5.65;32.82;99930.16;4816206;29;20071;-70
2021/03/06 16:58:40;;;;;;;4.88;3.42;;;;;;;5.58;33.00;99918.03;4824022;29;20042;-70
2021/03/06 17:01:05;;;;;;;7.90;3.83;;;;;;;5.48;33.41;99921.25;4806056;29;20123;-68
2021/03/06 17:03:31;;;;;;;7.72;3.65;;;;;;;5.36;33.54;99922.69;4835841;29;20040;-67
2021/03/06 17:05:56;;;;;;;8.95;4.25;;;;;;;5.22;33.75;99921.56;4833175;29;20036;-74
2021/03/06 17:08:21;;;;;;;20.20;4.35;;;;;;;5.12;34.21;99927.31;4838593;29;20211;-71
2021/03/06 17:10:47;;;;;;;5.28;3.35;;;;;;;5.13;33.08;99931.63;4814047;29;20837;-70
2021/03/06 17:13:12;;;;;;;6.47;3.97;;;;;;;4.99;33.80;99941.59;4847148;29;20048;-73
2021/03/06 17:15:38;;;;;;;6.97;2.75;;;;;;;4.87;34.03;99941.28;4846275;29;20092;-67
2021/03/06 17:18:03;;;;;;;7.13;3.45;;;;;;;4.78;34.21;99936.78;4845846;29;20052;-67
2021/03/06 17:20:29;;;;;;;7.30;3.10;;;;;;;4.75;34.42;99941.00;4845368;29;20509;-71
2021/03/06 17:22:54;;;;;;;6.82;4.20;;;;;;;4.59;34.93;99940.66;4850895;29;20040;-72
2021/03/06 17:25:20;;;;;;;7.97;5.00;;;;;;;4.48;35.36;99957.44;4856124;29;20119;-75
2021/03/06 17:27:45;;;;;;;19.58;7.25;;;;;;;4.37;36.45;99961.44;4854167;29;20071;-69
2021/03/06 17:30:12;;;;;;;16.25;6.43;;;;;;;4.19;37.72;99956.69;4868672;29;20132;-75
2021/03/06 17:32:38;;;;;;;13.80;6.22;;;;;;;4.05;38.03;99950.31;4865946;29;20024;-77
2021/03/06 17:35:05;;;;;;;14.43;5.85;;;;;;;3.88;38.65;99947.31;4877642;29;20032;-77
2021/03/06 17:37:30;;;;;;;22.45;7.53;;;;;;;3.72;39.76;99955.38;4879757;29;20107;-77
2021/03/06 17:39:55;;;;;;;19.85;8.05;;;;;;;3.54;40.68;99960.88;4880586;29;20168;-76
2021/03/06 17:42:21;;;;;;;24.48;8.88;;;;;;;3.35;41.49;99965.44;4879777;29;20033;-73
2021/03/06 17:44:47;;;;;;;19.27;6.90;;;;;;;3.29;42.13;99959.28;4886649;29;20036;-75
2021/03/06 17:47:12;;;;;;;9.18;4.75;;;;;;;3.54;43.86;99960.88;4864505;29;20066;-76
2021/03/06 17:49:39;;;;;;;12.68;5.40;;;;;;;3.41;40.52;99961.31;4859559;29;20029;-71
2021/03/06 17:52:05;;;;;;;13.77;5.95;;;;;;;3.44;40.14;99969.13;4848578;29;20029;-70
2021/03/06 17:54:30;;;;;;;15.88;5.72;;;;;;;3.32;41.21;99965.34;4841479;29;20044;-69
2021/03/06 17:56:56;;;;;;;45.58;16.15;;;;;;;3.26;40.82;99965.16;4828674;29;20029;-69
2021/03/06 17:59:21;;;;;;;24.50;9.80;;;;;;;3.09;41.75;99966.31;4819014;29;20033;-69
2021/03/06 18:01:48;;;;;;;22.90;9.60;;;;;;;2.87;42.71;99966.50;4824924;29;20040;-69
2021/03/06 18:04:13;;;;;;;51.78;26.35;;;;;;;2.69;43.63;99975.31;4812363;29;20382;-69
2021/03/06 18:06:39;;;;;;;32.20;16.75;;;;;;;2.69;43.43;99970.19;4807495;29;20072;-69
2021/03/06 18:09:06;;;;;;;15.43;9.13;;;;;;;2.63;43.50;99975.13;4795076;29;20390;-69
2021/03/06 18:11:32;;;;;;;26.50;13.18;;;;;;;2.51;43.78;99975.56;4784699;29;20032;-69
2021/03/06 18:13:57;;;;;;;34.08;14.80;;;;;;;2.45;45.04;99967.69;4792766;29;20036;-69
2021/03/06 18:16:23;;;;;;;63.92;35.45;;;;;;;2.36;44.53;99969.94;4813104;29;20115;-69
2021/03/06 18:18:48;;;;;;;39.28;21.25;;;;;;;2.28;44.78;99972.25;4812359;29;20043;-69
2021/03/06 18:21:13;;;;;;;23.00;13.07;;;;;;;2.17;45.68;99970.97;4815526;29;20056;-69
2021/03/06 18:23:39;;;;;;;12.45;7.10;;;;;;;2.24;46.59;99970.38;4823184;29;20162;-69
2021/03/06 18:26:05;;;;;;;14.32;7.28;;;;;;;2.18;46.99;99966.75;4825518;29;20172;-69
2021/03/06 18:28:30;;;;;;;12.57;7.53;;;;;;;2.14;47.21;99963.22;4832610;29;20119;-69
2021/03/06 18:30:56;;;;;;;15.48;9.90;;;;;;;2.10;47.23;99965.63;4835603;29;20499;-69
2021/03/06 18:33:21;;;;;;;20.88;11.50;;;;;;;1.97;47.14;99960.06;4840968;29;20064;-69